Emmett, Michigan
Current Conditions -  °F | °C
As of 2:36 PM on Tuesday 21 Oct 2014 (Local Time) from KPHN Reporting Station
Overcast Overcast  
Wind Chill: 39°   Ceiling: 1500
Heat Index: 45°   Visibility: 10mi
Dew Point: 41°   Wind: 12mph
Humidity: 87%   Direction: 350°N
Pressure: 30.03"   Gusts: 23mph
Location:  42.99°N, 82.76°W
Report Text: KPHN 211836Z AUTO 35010G20KT 10SM OVC015 07/05 A3003 RMK AO2
Loading
Personal Weather Stations






























Interactive Weather Map
Tropical Storm Tracking
New forecast layout! Learn more

10-Day Weather Forecast

Advertisements
Track Severe Weather on mobile